createdAt,value
2018-10-17T00:02:10.603Z,19.47
2018-10-17T00:04:39.243Z,20.63
2018-10-17T00:07:07.808Z,21.27
2018-10-17T00:09:36.279Z,21.47
2018-10-17T00:12:04.885Z,21.57
2018-10-17T00:14:33.494Z,22.90
2018-10-17T00:17:02.062Z,22.17
2018-10-17T00:19:30.624Z,23.47
2018-10-17T00:21:59.137Z,22.53
2018-10-17T00:24:27.625Z,25.47
2018-10-17T00:26:56.291Z,23.17
2018-10-17T00:29:24.806Z,23.70
2018-10-17T00:31:53.337Z,23.23
2018-10-17T00:34:21.924Z,23.90
2018-10-17T00:36:50.432Z,22.27
2018-10-17T00:39:18.929Z,21.53
2018-10-17T00:41:47.468Z,20.87
2018-10-17T00:44:16.007Z,21.63
2018-10-17T00:46:44.555Z,20.23
2018-10-17T00:49:13.180Z,19.73
2018-10-17T00:51:41.611Z,18.33
2018-10-17T00:54:10.178Z,18.00
2018-10-17T00:56:38.667Z,18.07
2018-10-17T00:59:13.183Z,18.23
2018-10-17T01:01:41.657Z,18.47
2018-10-17T01:04:10.313Z,19.17
2018-10-17T01:06:39.395Z,21.57
2018-10-17T01:09:13.812Z,19.13
2018-10-17T01:11:42.585Z,19.33
2018-10-17T01:14:11.253Z,21.50
2018-10-17T01:16:39.739Z,25.37
2018-10-17T01:19:08.601Z,22.83
2018-10-17T01:21:37.617Z,25.67
2018-10-17T01:24:06.405Z,23.50
2018-10-17T01:26:34.913Z,25.33
2018-10-17T01:29:03.601Z,25.03
2018-10-17T01:31:32.156Z,26.00
2018-10-17T01:34:00.659Z,28.43
2018-10-17T01:36:29.153Z,26.53
2018-10-17T01:38:57.639Z,28.33
2018-10-17T01:41:26.285Z,26.57
2018-10-17T01:43:54.897Z,25.80
2018-10-17T01:46:23.380Z,26.67
2018-10-17T01:48:51.901Z,25.33
2018-10-17T01:51:20.404Z,27.03
2018-10-17T01:53:48.992Z,24.67
2018-10-17T01:56:17.625Z,25.30
2018-10-17T01:58:46.221Z,24.57
2018-10-17T02:01:14.794Z,25.50
2018-10-17T02:03:43.244Z,24.80
2018-10-17T02:06:11.944Z,25.03
2018-10-17T02:08:40.451Z,26.70
2018-10-17T02:11:08.999Z,23.90
2018-10-17T02:13:37.476Z,24.50
2018-10-17T02:16:06.020Z,26.10
2018-10-17T02:18:34.515Z,25.67
2018-10-17T02:21:03.012Z,27.97
2018-10-17T02:23:31.508Z,28.73
2018-10-17T02:26:00.023Z,28.87
2018-10-17T02:28:28.515Z,26.80
2018-10-17T02:30:57.216Z,25.67
2018-10-17T02:33:25.671Z,25.77
2018-10-17T02:35:54.198Z,26.13
2018-10-17T02:38:22.735Z,26.37
2018-10-17T02:40:51.327Z,28.50
2018-10-17T02:43:19.886Z,29.80
2018-10-17T02:45:48.454Z,28.80
2018-10-17T02:48:16.934Z,29.07
2018-10-17T02:50:45.404Z,29.43
2018-10-17T02:53:13.936Z,28.00
2018-10-17T02:55:42.433Z,28.43
2018-10-17T02:58:11.002Z,28.30
2018-10-17T03:00:39.507Z,28.87
2018-10-17T03:03:08.076Z,29.60
2018-10-17T03:05:36.608Z,30.30
2018-10-17T03:08:05.444Z,30.57
2018-10-17T03:10:34.047Z,29.97
2018-10-17T03:13:02.586Z,31.20
2018-10-17T03:15:31.142Z,32.57
2018-10-17T03:17:59.694Z,30.80
2018-10-17T03:20:28.203Z,29.57
2018-10-17T03:22:56.880Z,31.43
2018-10-17T03:25:25.376Z,31.13
2018-10-17T03:27:53.997Z,33.13
2018-10-17T03:30:22.388Z,31.50
2018-10-17T03:32:50.992Z,29.93
2018-10-17T03:35:19.483Z,30.33
2018-10-17T03:37:47.979Z,31.60
2018-10-17T03:40:16.486Z,32.80
2018-10-17T03:42:44.992Z,32.63
2018-10-17T03:45:13.598Z,32.50
2018-10-17T03:47:42.173Z,30.40
2018-10-17T03:50:10.677Z,35.00
2018-10-17T03:52:39.168Z,33.20
2018-10-17T03:55:07.923Z,33.40
2018-10-17T03:57:36.357Z,35.53
2018-10-17T04:00:05.300Z,34.90
2018-10-17T04:02:34.100Z,37.90
2018-10-17T04:05:03.730Z,36.03
2018-10-17T04:07:32.290Z,35.57
2018-10-17T04:10:00.869Z,36.40
2018-10-17T04:12:29.385Z,34.70
2018-10-17T04:14:57.906Z,37.47
2018-10-17T04:17:26.417Z,39.23
2018-10-17T04:19:54.957Z,40.40
2018-10-17T04:22:23.465Z,37.77
2018-10-17T04:24:52.024Z,41.70
2018-10-17T04:27:20.476Z,39.13
2018-10-17T04:29:49.115Z,42.03
2018-10-17T04:32:17.625Z,41.27
2018-10-17T04:34:46.146Z,43.73
2018-10-17T04:37:14.680Z,40.43
2018-10-17T04:39:43.263Z,40.67
2018-10-17T04:42:11.794Z,39.50
2018-10-17T04:44:40.307Z,38.77
2018-10-17T04:47:08.850Z,44.50
2018-10-17T04:49:37.310Z,46.33
2018-10-17T04:52:06.151Z,44.47
2018-10-17T04:54:34.792Z,47.47
2018-10-17T04:57:03.416Z,45.97
2018-10-17T04:59:32.026Z,44.40
2018-10-17T05:02:00.591Z,44.63
2018-10-17T05:04:29.132Z,46.50
2018-10-17T05:06:57.761Z,48.10
2018-10-17T05:09:26.233Z,48.20
2018-10-17T05:11:54.710Z,45.57
2018-10-17T05:14:23.326Z,46.60
2018-10-17T05:16:51.845Z,47.67
2018-10-17T05:19:20.470Z,44.93
2018-10-17T05:21:48.976Z,44.53
2018-10-17T05:24:17.581Z,53.90
2018-10-17T05:26:46.162Z,47.87
2018-10-17T05:29:14.731Z,50.50
2018-10-17T05:31:43.296Z,49.33
2018-10-17T05:34:11.771Z,54.50
2018-10-17T05:36:40.496Z,53.17
2018-10-17T05:39:09.396Z,55.67
2018-10-17T05:41:38.104Z,59.80
2018-10-17T05:44:06.694Z,57.97
2018-10-17T05:46:35.222Z,56.57
2018-10-17T05:49:03.844Z,60.27
2018-10-17T05:51:32.350Z,63.10
2018-10-17T05:54:00.945Z,65.00
2018-10-17T05:56:29.434Z,64.23
2018-10-17T05:58:57.930Z,64.30
2018-10-17T06:01:26.475Z,64.53
2018-10-17T06:04:01.703Z,56.40
2018-10-17T06:06:30.401Z,64.33
2018-10-17T06:09:00.101Z,67.30
2018-10-17T06:11:28.770Z,67.30
2018-10-17T06:13:57.349Z,69.03
2018-10-17T06:16:25.858Z,64.63
2018-10-17T06:18:55.980Z,69.27
2018-10-17T06:21:24.435Z,62.83
2018-10-17T06:23:52.927Z,67.77
2018-10-17T06:26:21.445Z,59.73
2018-10-17T06:28:49.977Z,66.10
2018-10-17T06:31:18.590Z,64.43
2018-10-17T06:33:47.120Z,66.13
2018-10-17T06:36:15.592Z,68.67
2018-10-17T06:38:44.114Z,60.10
2018-10-17T06:41:12.875Z,55.63
2018-10-17T06:43:41.539Z,56.57
2018-10-17T06:46:10.004Z,62.43
2018-10-17T06:48:38.480Z,55.90
2018-10-17T06:51:07.042Z,58.73
2018-10-17T06:53:35.652Z,58.43
2018-10-17T06:56:04.215Z,57.40
2018-10-17T06:58:32.739Z,59.13
2018-10-17T07:01:01.320Z,58.27
2018-10-17T07:03:29.772Z,61.07
2018-10-17T07:05:58.282Z,65.73
2018-10-17T07:08:26.890Z,65.00
2018-10-17T07:10:55.399Z,60.47
2018-10-17T07:13:23.911Z,60.37
2018-10-17T07:15:52.504Z,54.07
2018-10-17T07:18:20.978Z,55.27
2018-10-17T07:20:50.250Z,59.20
2018-10-17T07:23:19.007Z,55.60
2018-10-17T07:25:47.550Z,57.23
2018-10-17T07:28:16.043Z,54.17
2018-10-17T07:30:45.169Z,51.23
2018-10-17T07:33:13.812Z,52.17
2018-10-17T07:35:42.450Z,56.70
2018-10-17T07:38:11.002Z,60.73
2018-10-17T07:40:39.568Z,61.93
2018-10-17T07:43:14.917Z,62.23
2018-10-17T07:45:43.706Z,65.93
2018-10-17T07:48:12.304Z,67.57
2018-10-17T07:50:40.890Z,67.53
2018-10-17T07:53:09.427Z,73.93
2018-10-17T07:55:38.010Z,68.03
2018-10-17T07:58:06.817Z,70.27
2018-10-17T08:00:35.321Z,70.07
2018-10-17T08:03:03.838Z,63.17
2018-10-17T08:05:32.434Z,61.53
2018-10-17T08:08:00.942Z,60.10
2018-10-17T08:10:35.800Z,61.53
2018-10-17T08:13:05.487Z,57.40
2018-10-17T08:15:34.031Z,60.03
2018-10-17T08:18:02.605Z,61.17
2018-10-17T08:20:31.139Z,57.10
2018-10-17T08:22:59.659Z,56.53
2018-10-17T08:25:28.154Z,55.67
2018-10-17T08:27:56.684Z,59.87
2018-10-17T08:30:25.208Z,55.73
2018-10-17T08:32:53.730Z,56.00
2018-10-17T08:35:22.276Z,55.73
2018-10-17T08:37:51.151Z,55.47
2018-10-17T08:40:19.363Z,53.50
2018-10-17T08:42:47.903Z,54.87
2018-10-17T08:45:16.556Z,51.73
2018-10-17T08:47:45.373Z,48.50
2018-10-17T08:50:13.978Z,52.67
2018-10-17T08:52:42.449Z,52.00
2018-10-17T08:55:11.027Z,47.27
2018-10-17T08:57:39.586Z,49.07
2018-10-17T09:00:08.674Z,41.70
2018-10-17T09:02:37.188Z,48.07
2018-10-17T09:05:05.775Z,46.43
2018-10-17T09:07:34.426Z,43.10
2018-10-17T09:10:02.883Z,43.27
2018-10-17T09:12:31.419Z,44.87
2018-10-17T09:14:59.951Z,45.00
2018-10-17T09:17:28.488Z,41.20
2018-10-17T09:19:57.132Z,40.77
2018-10-17T09:22:25.741Z,41.93
2018-10-17T09:24:54.060Z,42.33
2018-10-17T09:27:22.618Z,46.80
2018-10-17T09:29:51.325Z,43.80
2018-10-17T09:32:19.858Z,40.90
2018-10-17T09:34:48.471Z,37.87
2018-10-17T09:37:16.954Z,36.20
2018-10-17T09:39:45.491Z,35.50
2018-10-17T09:42:14.111Z,32.13
2018-10-17T09:44:42.538Z,32.83
2018-10-17T09:47:11.019Z,35.23
2018-10-17T09:49:39.552Z,35.00
2018-10-17T09:52:08.110Z,35.23
2018-10-17T09:54:36.535Z,33.47
2018-10-17T09:57:05.291Z,34.80
2018-10-17T09:59:33.840Z,30.60
2018-10-17T10:02:02.382Z,36.53
2018-10-17T10:04:30.857Z,26.43
2018-10-17T10:06:59.386Z,26.67
2018-10-17T10:09:27.899Z,29.27
2018-10-17T10:11:56.443Z,28.40
2018-10-17T10:14:24.886Z,26.87
2018-10-17T10:16:53.388Z,27.97
2018-10-17T10:19:21.897Z,28.27
2018-10-17T10:21:50.408Z,27.13
2018-10-17T10:24:19.015Z,28.70
2018-10-17T10:26:47.526Z,29.10
2018-10-17T10:29:16.050Z,26.33
2018-10-17T10:31:44.556Z,28.07
2018-10-17T10:34:13.134Z,27.47
2018-10-17T10:36:41.570Z,27.60
2018-10-17T10:39:11.273Z,28.57
2018-10-17T10:41:40.262Z,31.77
2018-10-17T10:44:08.821Z,26.33
2018-10-17T10:46:37.330Z,24.20
2018-10-17T10:49:05.966Z,26.23
2018-10-17T10:51:34.495Z,26.83
2018-10-17T10:54:03.117Z,28.50
2018-10-17T10:56:32.203Z,24.90
2018-10-17T10:59:00.771Z,25.47
2018-10-17T11:01:29.317Z,24.90
2018-10-17T11:03:57.989Z,24.57
2018-10-17T11:06:26.598Z,23.53
2018-10-17T11:08:55.199Z,21.20
2018-10-17T11:11:23.737Z,20.63
2018-10-17T11:13:52.310Z,20.50
2018-10-17T11:16:20.869Z,25.97
2018-10-17T11:18:49.411Z,22.63
2018-10-17T11:21:18.054Z,22.93
2018-10-17T11:23:46.549Z,20.53
2018-10-17T11:26:15.095Z,21.67
2018-10-17T11:28:43.636Z,23.93
2018-10-17T11:31:12.315Z,20.07
2018-10-17T11:33:40.848Z,27.73
2018-10-17T11:36:09.378Z,25.97
2018-10-17T11:38:37.926Z,23.43
2018-10-17T11:41:06.584Z,21.17
2018-10-17T11:43:35.056Z,23.43
2018-10-17T11:46:03.647Z,23.43
2018-10-17T11:48:32.209Z,22.87
2018-10-17T11:51:00.805Z,23.13
2018-10-17T11:53:29.329Z,22.03
2018-10-17T11:55:57.920Z,21.60
2018-10-17T11:58:26.465Z,21.30
2018-10-17T12:00:55.033Z,20.53
2018-10-17T12:03:23.587Z,19.93
2018-10-17T12:05:52.190Z,21.00
2018-10-17T12:08:20.581Z,23.60
2018-10-17T12:10:49.101Z,21.67
2018-10-17T12:13:17.648Z,20.43
2018-10-17T12:15:46.167Z,19.33
2018-10-17T12:18:14.689Z,17.90
2018-10-17T12:20:43.215Z,19.93
2018-10-17T12:23:11.735Z,18.63
2018-10-17T12:25:40.244Z,19.60
2018-10-17T12:28:08.759Z,19.37
2018-10-17T12:30:37.240Z,19.13
2018-10-17T12:33:05.967Z,19.83
2018-10-17T12:35:34.455Z,18.43
2018-10-17T12:38:02.951Z,19.77
2018-10-17T12:40:31.592Z,18.70
2018-10-17T12:43:00.028Z,20.80
2018-10-17T12:45:28.675Z,21.13
2018-10-17T12:47:57.181Z,19.47
2018-10-17T12:50:25.684Z,18.97
2018-10-17T12:52:54.193Z,19.57
2018-10-17T12:55:22.714Z,19.37
2018-10-17T12:57:51.216Z,18.77
2018-10-17T13:00:19.710Z,18.57
2018-10-17T13:02:48.214Z,18.07
2018-10-17T13:05:18.047Z,16.10
2018-10-17T13:07:46.628Z,16.27
2018-10-17T13:10:15.114Z,16.93
2018-10-17T13:12:43.705Z,15.57
2018-10-17T13:15:14.041Z,16.90
2018-10-17T13:17:43.646Z,17.70
2018-10-17T13:20:12.169Z,17.57
2018-10-17T13:22:40.779Z,16.93
2018-10-17T13:25:10.296Z,17.63
2018-10-17T13:27:38.758Z,18.13
2018-10-17T13:30:07.874Z,15.67
2018-10-17T13:32:36.415Z,14.97
2018-10-17T13:35:05.575Z,17.10
2018-10-17T13:37:34.163Z,18.60
2018-10-17T13:40:02.957Z,18.37
2018-10-17T13:42:31.547Z,20.60
2018-10-17T13:45:00.339Z,17.50
2018-10-17T13:47:29.003Z,17.40
2018-10-17T13:49:57.907Z,17.53
2018-10-17T13:52:26.595Z,18.20
2018-10-17T13:54:55.168Z,16.97
2018-10-17T13:57:23.712Z,17.90
2018-10-17T13:59:52.306Z,14.77
2018-10-17T14:02:20.803Z,15.60
2018-10-17T14:04:49.324Z,14.30
2018-10-17T14:07:17.992Z,16.13
2018-10-17T14:09:46.512Z,17.27
2018-10-17T14:12:15.072Z,17.50
2018-10-17T14:14:43.529Z,19.20
2018-10-17T14:17:12.091Z,17.47
2018-10-17T14:19:40.631Z,18.33
2018-10-17T14:22:09.827Z,16.00
2018-10-17T14:24:38.393Z,16.30
2018-10-17T14:27:07.378Z,16.67
2018-10-17T14:29:35.918Z,16.63
2018-10-17T14:32:04.745Z,16.87
2018-10-17T14:34:33.301Z,16.13
2018-10-17T14:37:01.903Z,15.67
2018-10-17T14:39:30.572Z,17.93
2018-10-17T14:41:59.818Z,19.33
2018-10-17T14:44:28.389Z,17.57
2018-10-17T14:46:56.971Z,18.30
2018-10-17T14:49:25.495Z,17.43
2018-10-17T14:51:54.031Z,18.77
2018-10-17T14:54:22.539Z,16.57
2018-10-17T14:56:51.028Z,19.23
2018-10-17T14:59:19.908Z,18.30
2018-10-17T15:01:48.463Z,17.77
2018-10-17T15:04:17.023Z,19.00
2018-10-17T15:06:45.643Z,17.87
2018-10-17T15:09:14.388Z,19.57
2018-10-17T15:11:43.006Z,17.93
2018-10-17T15:14:11.545Z,19.40
2018-10-17T15:16:40.126Z,17.83
2018-10-17T15:19:08.699Z,16.63
2018-10-17T15:21:37.211Z,17.03
2018-10-17T15:24:06.037Z,17.13
2018-10-17T15:26:34.529Z,17.37
2018-10-17T15:29:03.087Z,16.27
2018-10-17T15:31:31.697Z,16.13
2018-10-17T15:34:00.229Z,16.53
2018-10-17T15:36:28.772Z,15.93
2018-10-17T15:38:57.433Z,21.23
2018-10-17T15:41:25.911Z,16.43
2018-10-17T15:43:54.538Z,16.90
2018-10-17T15:46:23.054Z,14.83
2018-10-17T15:48:51.599Z,16.17
2018-10-17T15:51:20.197Z,14.50
2018-10-17T15:53:48.776Z,14.23
2018-10-17T15:56:17.317Z,15.57
2018-10-17T15:58:45.859Z,15.30
2018-10-17T16:01:14.417Z,13.93
2018-10-17T16:03:42.898Z,14.43
2018-10-17T16:06:11.432Z,14.43
2018-10-17T16:08:39.950Z,13.53
2018-10-17T16:11:08.458Z,13.37
2018-10-17T16:13:37.133Z,15.87
2018-10-17T16:16:06.477Z,15.93
2018-10-17T16:18:35.120Z,15.90
2018-10-17T16:21:03.699Z,16.73
2018-10-17T16:23:32.211Z,14.50
2018-10-17T16:26:00.708Z,15.37
2018-10-17T16:28:29.270Z,15.70
2018-10-17T16:30:57.882Z,15.67
2018-10-17T16:33:26.395Z,15.70
2018-10-17T16:35:55.002Z,16.20
2018-10-17T16:38:23.522Z,17.23
2018-10-17T16:40:52.165Z,18.13
2018-10-17T16:43:20.687Z,19.53
2018-10-17T16:45:49.272Z,19.27
2018-10-17T16:48:17.860Z,19.90
2018-10-17T16:50:46.450Z,19.00
2018-10-17T16:53:14.901Z,19.33
2018-10-17T16:55:43.424Z,19.53
2018-10-17T16:58:12.027Z,20.93
2018-10-17T17:00:40.496Z,20.63
2018-10-17T17:03:09.559Z,21.17
2018-10-17T17:05:38.094Z,22.20
2018-10-17T17:08:06.716Z,20.93
2018-10-17T17:10:35.263Z,21.47
2018-10-17T17:13:03.840Z,21.23
2018-10-17T17:15:33.075Z,21.57
2018-10-17T17:18:01.591Z,22.00
2018-10-17T17:20:30.176Z,22.57
2018-10-17T17:22:58.681Z,21.67
2018-10-17T17:25:27.286Z,20.87
2018-10-17T17:27:55.816Z,22.20
2018-10-17T17:30:24.429Z,24.43
2018-10-17T17:32:52.907Z,22.53
2018-10-17T17:37:50.062Z,23.37
2018-10-17T17:40:18.637Z,23.90
2018-10-17T17:42:47.175Z,24.43
2018-10-17T17:45:15.687Z,23.47
2018-10-17T17:47:44.240Z,22.50
2018-10-17T17:50:12.802Z,24.13
2018-10-17T17:52:41.376Z,25.97
2018-10-17T17:55:10.310Z,24.80
2018-10-17T17:57:39.221Z,25.77
2018-10-17T18:00:08.254Z,27.77
2018-10-17T18:02:36.785Z,26.27
2018-10-17T18:05:06.012Z,27.10
2018-10-17T18:07:34.516Z,25.40
2018-10-17T18:10:03.177Z,25.20
2018-10-17T18:12:31.726Z,27.43
2018-10-17T18:15:00.340Z,27.33
2018-10-17T18:17:28.864Z,24.60
2018-10-17T18:19:57.469Z,27.03
2018-10-17T18:22:26.058Z,23.73
2018-10-17T18:24:54.667Z,26.23
2018-10-17T18:27:23.311Z,24.23
2018-10-17T18:29:52.821Z,24.80
2018-10-17T18:32:22.248Z,23.50
2018-10-17T18:34:50.857Z,22.77
2018-10-17T18:37:19.418Z,23.17
2018-10-17T18:39:47.961Z,24.03
2018-10-17T18:42:16.571Z,22.33
2018-10-17T18:44:45.136Z,22.57
2018-10-17T18:47:13.684Z,22.93
2018-10-17T18:49:42.974Z,22.77
2018-10-17T18:52:11.589Z,22.57
2018-10-17T18:54:40.247Z,22.70
2018-10-17T18:57:08.944Z,21.67
2018-10-17T18:59:37.694Z,21.30
2018-10-17T19:02:06.513Z,21.57
2018-10-17T19:04:35.073Z,23.63
2018-10-17T19:07:03.639Z,23.90
2018-10-17T19:09:32.176Z,21.40
2018-10-17T19:12:00.709Z,23.43
2018-10-17T19:14:29.270Z,22.13
2018-10-17T19:16:57.814Z,21.40
2018-10-17T19:19:26.389Z,22.13
2018-10-17T19:21:54.903Z,21.67
2018-10-17T19:24:23.462Z,21.77
2018-10-17T19:26:52.078Z,22.90
2018-10-17T19:29:20.622Z,21.50
2018-10-17T19:31:49.133Z,22.37
2018-10-17T19:34:17.696Z,21.73
2018-10-17T19:36:46.222Z,20.60
2018-10-17T19:39:14.798Z,24.20
2018-10-17T19:41:43.673Z,20.57
2018-10-17T19:44:13.096Z,21.13
2018-10-17T19:46:41.642Z,22.03
2018-10-17T19:49:10.430Z,23.43
2018-10-17T19:51:38.929Z,21.10
2018-10-17T19:54:08.332Z,23.77
2018-10-17T19:56:36.903Z,23.30
2018-10-17T19:59:14.700Z,20.47
2018-10-17T20:01:43.316Z,21.97
2018-10-17T20:04:11.839Z,18.70
2018-10-17T20:06:40.336Z,18.77
2018-10-17T20:09:10.247Z,20.43
2018-10-17T20:11:38.806Z,19.73
2018-10-17T20:14:08.365Z,18.83
2018-10-17T20:16:36.866Z,18.10
2018-10-17T20:19:05.734Z,18.37
2018-10-17T20:21:34.232Z,19.33
2018-10-17T20:24:02.802Z,20.07
2018-10-17T20:26:31.377Z,18.30
2018-10-17T20:28:59.917Z,20.50
2018-10-17T20:31:28.462Z,19.40
2018-10-17T20:33:56.957Z,17.57
2018-10-17T20:36:25.447Z,18.23
2018-10-17T20:38:54.002Z,17.40
2018-10-17T20:41:23.588Z,19.33
2018-10-17T20:43:52.107Z,19.50
2018-10-17T20:46:20.975Z,19.97
2018-10-17T20:48:49.473Z,21.67
2018-10-17T20:51:18.110Z,17.73
2018-10-17T20:53:46.693Z,20.20
2018-10-17T20:56:15.264Z,21.93
2018-10-17T20:58:43.799Z,40.37
2018-10-17T21:01:12.327Z,42.37
2018-10-17T21:03:40.880Z,28.93
2018-10-17T21:06:09.372Z,21.07
2018-10-17T21:08:38.019Z,18.57
2018-10-17T21:11:06.680Z,18.87
2018-10-17T21:13:35.208Z,19.03
2018-10-17T21:16:03.728Z,17.13
2018-10-17T21:18:32.377Z,16.23
2018-10-17T21:21:00.770Z,18.67
2018-10-17T21:23:29.334Z,16.93
2018-10-17T21:25:57.967Z,19.07
2018-10-17T21:28:26.461Z,15.97
2018-10-17T21:30:55.083Z,17.80
2018-10-17T21:33:23.633Z,17.80
2018-10-17T21:35:52.658Z,17.80
2018-10-17T21:38:21.180Z,17.70
2018-10-17T21:40:49.666Z,18.83
2018-10-17T21:43:19.021Z,20.40
2018-10-17T21:45:47.573Z,17.97
2018-10-17T21:48:16.076Z,17.43
2018-10-17T21:50:44.662Z,18.23
2018-10-17T21:53:13.271Z,19.37
2018-10-17T21:55:41.825Z,18.83
2018-10-17T21:58:10.328Z,18.53
2018-10-17T22:00:39.695Z,19.97
2018-10-17T22:03:08.170Z,19.07
2018-10-17T22:05:36.801Z,19.10
2018-10-17T22:08:05.863Z,19.03
2018-10-17T22:10:34.402Z,19.00
2018-10-17T22:13:02.880Z,19.57
2018-10-17T22:15:31.497Z,19.23
2018-10-17T22:18:00.004Z,20.20
2018-10-17T22:20:28.573Z,20.27
2018-10-17T22:22:57.093Z,21.47
2018-10-17T22:25:25.583Z,20.30
2018-10-17T22:27:54.113Z,20.00
2018-10-17T22:30:22.688Z,20.43
2018-10-17T22:32:51.193Z,19.63
2018-10-17T22:35:19.881Z,19.43
2018-10-17T22:37:48.410Z,19.00
2018-10-17T22:40:16.908Z,20.50
2018-10-17T22:42:45.415Z,20.27
2018-10-17T22:45:13.909Z,22.03
2018-10-17T22:47:42.401Z,21.27
2018-10-17T22:50:11.550Z,20.93
2018-10-17T22:52:40.430Z,19.90
2018-10-17T22:55:08.936Z,21.67
2018-10-17T22:57:37.479Z,19.33
2018-10-17T23:00:07.311Z,21.30
2018-10-17T23:02:35.802Z,20.90
2018-10-17T23:05:05.698Z,19.93
2018-10-17T23:07:34.388Z,23.37
2018-10-17T23:10:02.970Z,19.40
2018-10-17T23:12:31.544Z,20.97
2018-10-17T23:15:00.048Z,20.83
2018-10-17T23:17:28.727Z,19.70
2018-10-17T23:19:57.219Z,20.27
2018-10-17T23:22:25.723Z,19.93
2018-10-17T23:24:54.298Z,19.63
2018-10-17T23:27:22.832Z,21.47
2018-10-17T23:29:51.340Z,19.40
2018-10-17T23:32:19.881Z,19.53
2018-10-17T23:34:49.296Z,24.33
2018-10-17T23:37:17.765Z,20.73
2018-10-17T23:39:46.352Z,21.03
2018-10-17T23:42:15.051Z,22.37
2018-10-17T23:44:43.485Z,20.03
2018-10-17T23:47:11.968Z,20.40
2018-10-17T23:49:40.439Z,19.50
2018-10-17T23:52:08.933Z,19.37
2018-10-17T23:54:37.424Z,21.13
2018-10-17T23:57:06.305Z,20.40
2018-10-17T23:59:34.883Z,20.33
